Time;durP1;ratioP1;P1;durP2;ratioP2;P2;SDS_P1;SDS_P2;PMS_P1;PMS_P2;Temp;Humidity;BMP_temperature;BMP_pressure;BME280_temperature;BME280_humidity;BME280_pressure;Samples;Min_cycle;Max_cycle;Signal;HPM_P1;HPM_P2
2023/04/17 00:01:54;;;;;;;16.63;9.17;;;;;;;;;;4400706;32;317878;-82
2023/04/17 00:04:21;;;;;;;18.40;9.27;;;;;;;;;;4389629;32;349591;-81
2023/04/17 00:06:48;;;;;;;16.13;8.73;;;;;;;;;;4399350;32;318020;-82
2023/04/17 00:09:16;;;;;;;18.87;10.23;;;;;;;;;;4390871;32;317903;-81
2023/04/17 00:11:45;;;;;;;13.90;7.83;;;;;;;;;;4400384;32;319586;-82
2023/04/17 00:14:12;;;;;;;20.53;9.63;;;;;;;;;;4390849;32;317881;-80
2023/04/17 00:16:39;;;;;;;18.93;10.23;;;;;;;;;;4400230;32;317538;-81
2023/04/17 00:19:07;;;;;;;17.47;9.73;;;;;;;;;;4401514;32;319081;-82
2023/04/17 00:21:34;;;;;;;18.87;10.43;;;;;;;;;;4385958;32;417301;-82
2023/04/17 00:24:02;;;;;;;17.62;9.52;;;;;;;;;;4401100;32;318936;-81
2023/04/17 00:26:31;;;;;;;19.08;8.90;;;;;;;;;;4389087;32;317862;-82
2023/04/17 00:29:00;;;;;;;12.40;7.87;;;;;;;;;;4399362;32;317797;-81
2023/04/17 00:31:27;;;;;;;17.00;8.97;;;;;;;;;;4390570;32;317823;-82
2023/04/17 00:33:54;;;;;;;14.60;7.97;;;;;;;;;;4400339;32;317745;-81
2023/04/17 00:36:22;;;;;;;13.47;7.10;;;;;;;;;;4390082;32;317850;-81
2023/04/17 00:38:49;;;;;;;11.33;6.17;;;;;;;;;;4400192;32;317911;-82
2023/04/17 00:41:17;;;;;;;13.20;7.20;;;;;;;;;;4388571;32;317844;-82
2023/04/17 00:43:44;;;;;;;15.47;6.53;;;;;;;;;;4401262;32;318047;-82
2023/04/17 00:46:13;;;;;;;14.30;6.30;;;;;;;;;;4388270;32;317762;-82
2023/04/17 00:48:42;;;;;;;12.23;6.60;;;;;;;;;;4399720;32;317798;-81
2023/04/17 00:51:10;;;;;;;15.80;7.27;;;;;;;;;;4390084;32;317990;-79
2023/04/17 00:53:37;;;;;;;11.00;6.50;;;;;;;;;;4400114;32;317964;-81
2023/04/17 00:56:07;;;;;;;13.33;7.23;;;;;;;;;;4400609;32;317734;-81
2023/04/17 00:58:36;;;;;;;13.53;7.50;;;;;;;;;;4387180;32;417412;-82
2023/04/17 01:01:05;;;;;;;12.77;7.17;;;;;;;;;;4398733;32;317933;-81
2023/04/17 01:03:33;;;;;;;13.38;7.87;;;;;;;;;;4391110;32;318308;-80
2023/04/17 01:06:02;;;;;;;11.53;6.60;;;;;;;;;;4400554;32;317975;-79
2023/04/17 01:08:35;;;;;;;15.47;7.63;;;;;;;;;;4389403;32;318217;-81
2023/04/17 01:11:02;;;;;;;13.87;8.10;;;;;;;;;;4398437;32;317840;-82
2023/04/17 01:13:30;;;;;;;15.93;9.77;;;;;;;;;;4390207;32;317968;-81
2023/04/17 01:15:57;;;;;;;19.73;11.07;;;;;;;;;;4400658;32;317833;-80
2023/04/17 01:18:24;;;;;;;24.02;12.20;;;;;;;;;;4390380;32;320235;-81
2023/04/17 01:20:53;;;;;;;34.17;17.30;;;;;;;;;;4399856;32;318860;-81
2023/04/17 01:23:20;;;;;;;28.93;17.07;;;;;;;;;;4389539;32;328026;-81
2023/04/17 01:25:50;;;;;;;30.50;15.60;;;;;;;;;;4399762;32;318793;-82
2023/04/17 01:28:17;;;;;;;30.47;15.77;;;;;;;;;;4389947;32;319036;-82
2023/04/17 01:30:44;;;;;;;28.73;14.27;;;;;;;;;;4398271;32;319009;-81
2023/04/17 01:33:12;;;;;;;31.37;15.77;;;;;;;;;;4389544;32;319040;-81
2023/04/17 01:35:39;;;;;;;31.03;16.93;;;;;;;;;;4403064;32;318970;-82
2023/04/17 01:38:07;;;;;;;32.50;17.50;;;;;;;;;;4402684;32;319052;-82
2023/04/17 01:40:34;;;;;;;34.60;19.70;;;;;;;;;;4389967;32;417935;-82
2023/04/17 01:43:03;;;;;;;35.93;20.07;;;;;;;;;;4400562;32;318896;-83
2023/04/17 01:45:30;;;;;;;39.70;21.37;;;;;;;;;;4392841;32;318986;-82
2023/04/17 01:47:59;;;;;;;32.97;18.30;;;;;;;;;;4402349;32;319048;-81
2023/04/17 01:50:27;;;;;;;30.60;16.97;;;;;;;;;;4390929;32;319010;-82
2023/04/17 01:52:54;;;;;;;28.43;15.80;;;;;;;;;;4402953;32;318934;-81
2023/04/17 01:55:22;;;;;;;26.33;11.03;;;;;;;;;;4392281;32;318893;-78
2023/04/17 01:57:50;;;;;;;11.53;6.80;;;;;;;;;;4403057;32;331454;-81
2023/04/17 02:00:21;;;;;;;11.43;6.07;;;;;;;;;;4392569;32;317784;-81
2023/04/17 02:02:48;;;;;;;15.30;7.20;;;;;;;;;;4402086;32;318027;-81
2023/04/17 02:05:18;;;;;;;14.40;5.77;;;;;;;;;;4391409;32;317833;-83
2023/04/17 02:07:46;;;;;;;11.53;5.40;;;;;;;;;;4403277;32;318009;-81
2023/04/17 02:10:13;;;;;;;11.93;4.90;;;;;;;;;;4392545;32;317932;-82
2023/04/17 02:12:40;;;;;;;12.87;5.20;;;;;;;;;;4398466;32;318473;-82
2023/04/17 02:15:09;;;;;;;10.37;5.97;;;;;;;;;;4388076;32;317743;-81
2023/04/17 02:17:38;;;;;;;12.63;5.73;;;;;;;;;;4374391;32;417473;-78
2023/04/17 02:20:07;;;;;;;12.00;6.20;;;;;;;;;;4388086;32;317830;-81
2023/04/17 02:22:35;;;;;;;12.43;6.28;;;;;;;;;;4374476;32;417105;-81
2023/04/17 02:25:02;;;;;;;10.53;6.50;;;;;;;;;;4387945;32;318131;-82
2023/04/17 02:27:30;;;;;;;14.00;7.57;;;;;;;;;;4375434;32;317955;-82
2023/04/17 02:29:57;;;;;;;12.33;7.00;;;;;;;;;;4387598;32;317932;-78
2023/04/17 02:32:25;;;;;;;14.10;7.28;;;;;;;;;;4376392;32;317879;-78
2023/04/17 02:34:55;;;;;;;17.03;8.83;;;;;;;;;;4385584;32;348605;-78
2023/04/17 02:37:22;;;;;;;15.97;8.07;;;;;;;;;;4376884;32;317746;-82
2023/04/17 02:39:49;;;;;;;11.00;7.17;;;;;;;;;;4386638;32;332455;-82
2023/04/17 02:42:17;;;;;;;15.43;7.17;;;;;;;;;;4376450;32;318201;-81
2023/04/17 02:44:45;;;;;;;12.90;6.70;;;;;;;;;;4386412;32;317756;-81
2023/04/17 02:47:12;;;;;;;15.13;7.37;;;;;;;;;;4377041;32;341287;-82
2023/04/17 02:49:40;;;;;;;12.27;7.17;;;;;;;;;;4386646;32;317872;-81
2023/04/17 02:52:09;;;;;;;13.23;7.50;;;;;;;;;;4386662;32;317909;-81
2023/04/17 02:54:37;;;;;;;18.93;8.23;;;;;;;;;;4373569;32;417220;-82
2023/04/17 02:57:04;;;;;;;17.70;9.37;;;;;;;;;;4387324;32;317716;-76
2023/04/17 02:59:31;;;;;;;18.47;11.30;;;;;;;;;;4376938;32;326948;-79
2023/04/17 03:01:59;;;;;;;30.73;13.10;;;;;;;;;;4385557;32;319271;-78
2023/04/17 03:04:27;;;;;;;19.27;11.20;;;;;;;;;;4376521;32;318825;-82
2023/04/17 03:06:54;;;;;;;22.83;10.90;;;;;;;;;;4385442;32;319110;-78
2023/04/17 03:09:24;;;;;;;16.50;9.10;;;;;;;;;;4376864;32;318537;-79
2023/04/17 03:11:52;;;;;;;20.97;7.93;;;;;;;;;;4386646;32;317669;-79
2023/04/17 03:14:20;;;;;;;14.50;8.03;;;;;;;;;;4374815;32;354690;-80
2023/04/17 03:16:47;;;;;;;12.33;6.73;;;;;;;;;;4387278;32;317861;-79
2023/04/17 03:19:15;;;;;;;14.83;7.73;;;;;;;;;;4374607;32;317627;-80
2023/04/17 03:21:42;;;;;;;9.07;6.43;;;;;;;;;;4386623;32;317673;-79
2023/04/17 03:24:11;;;;;;;11.40;6.70;;;;;;;;;;4375022;32;327947;-80
2023/04/17 03:26:40;;;;;;;14.90;8.03;;;;;;;;;;4386021;32;317864;-77
2023/04/17 03:29:07;;;;;;;12.37;7.17;;;;;;;;;;4387539;32;317723;-80
2023/04/17 03:31:35;;;;;;;17.27;7.13;;;;;;;;;;4375344;32;386778;-82
2023/04/17 03:34:03;;;;;;;12.97;7.00;;;;;;;;;;4390946;32;326345;-82
2023/04/17 03:36:31;;;;;;;14.00;7.50;;;;;;;;;;4378209;32;317660;-78
2023/04/17 03:38:58;;;;;;;16.03;6.40;;;;;;;;;;4385694;32;318125;-78
2023/04/17 03:41:26;;;;;;;14.93;7.47;;;;;;;;;;4368306;32;318064;-80
2023/04/17 03:43:59;;;;;;;13.87;7.17;;;;;;;;;;4375715;32;317786;-78
2023/04/17 03:46:28;;;;;;;13.80;7.80;;;;;;;;;;4367085;32;317965;-80
2023/04/17 03:48:56;;;;;;;12.00;7.13;;;;;;;;;;4385832;32;317978;-76
2023/04/17 03:51:25;;;;;;;14.33;7.33;;;;;;;;;;4376753;32;317840;-81
2023/04/17 03:53:54;;;;;;;18.10;8.10;;;;;;;;;;4387212;32;318046;-80
2023/04/17 03:56:22;;;;;;;11.50;8.13;;;;;;;;;;4374197;32;317767;-77
2023/04/17 03:58:49;;;;;;;15.07;8.00;;;;;;;;;;4385780;32;317647;-78
2023/04/17 04:01:18;;;;;;;15.60;8.40;;;;;;;;;;4374351;32;317974;-79
2023/04/17 04:03:46;;;;;;;20.03;8.93;;;;;;;;;;4383977;32;317598;-78
2023/04/17 04:06:13;;;;;;;18.60;9.33;;;;;;;;;;4375546;32;318089;-79
2023/04/17 04:08:41;;;;;;;20.10;9.80;;;;;;;;;;4383119;32;318497;-81
2023/04/17 04:11:11;;;;;;;17.20;9.93;;;;;;;;;;4385499;32;317723;-82
2023/04/17 04:13:38;;;;;;;17.80;9.47;;;;;;;;;;4380767;32;418235;-78
2023/04/17 04:16:06;;;;;;;16.70;9.50;;;;;;;;;;4400148;32;317923;-81
2023/04/17 04:18:35;;;;;;;14.17;8.87;;;;;;;;;;4388460;32;417222;-81
2023/04/17 04:21:03;;;;;;;16.83;9.90;;;;;;;;;;4398304;32;317820;-77
2023/04/17 04:23:30;;;;;;;16.50;10.17;;;;;;;;;;4390127;32;317855;-79
2023/04/17 04:26:00;;;;;;;20.40;9.97;;;;;;;;;;4399042;32;318973;-79
2023/04/17 04:28:29;;;;;;;20.67;12.37;;;;;;;;;;4390053;32;335765;-82
2023/04/17 04:30:57;;;;;;;29.23;15.43;;;;;;;;;;4397800;32;318747;-79
2023/04/17 04:33:26;;;;;;;27.53;15.07;;;;;;;;;;4389921;32;318768;-78
2023/04/17 04:36:00;;;;;;;24.20;15.57;;;;;;;;;;4400579;32;318902;-79
2023/04/17 04:38:31;;;;;;;25.30;14.67;;;;;;;;;;4390750;32;318932;-81
2023/04/17 04:41:04;;;;;;;29.50;15.63;;;;;;;;;;4401109;32;318870;-81
2023/04/17 04:43:33;;;;;;;30.70;16.00;;;;;;;;;;4390140;32;319285;-79
2023/04/17 04:46:00;;;;;;;31.53;15.00;;;;;;;;;;4400632;32;318756;-82
2023/04/17 04:48:28;;;;;;;34.10;14.97;;;;;;;;;;4391069;32;318874;-78
2023/04/17 04:50:57;;;;;;;22.50;14.60;;;;;;;;;;4400849;32;318771;-82
2023/04/17 04:53:24;;;;;;;21.43;14.10;;;;;;;;;;4390689;32;318925;-81
2023/04/17 04:55:52;;;;;;;28.93;14.77;;;;;;;;;;4398351;32;318742;-83
2023/04/17 04:58:19;;;;;;;29.37;16.60;;;;;;;;;;4390895;32;318869;-81
2023/04/17 05:00:48;;;;;;;30.50;15.80;;;;;;;;;;4385652;32;318763;-81
2023/04/17 05:03:16;;;;;;;28.13;14.63;;;;;;;;;;4388797;32;318862;-81
2023/04/17 05:05:43;;;;;;;30.20;19.87;;;;;;;;;;4400529;32;318917;-82
2023/04/17 05:08:12;;;;;;;31.63;20.47;;;;;;;;;;4388430;32;357649;-82
2023/04/17 05:10:40;;;;;;;30.73;20.80;;;;;;;;;;4402048;32;318521;-81
2023/04/17 05:13:07;;;;;;;39.67;23.97;;;;;;;;;;4403312;32;319119;-78
2023/04/17 05:15:35;;;;;;;41.80;24.83;;;;;;;;;;4387808;32;418428;-82
2023/04/17 05:18:02;;;;;;;38.10;20.87;;;;;;;;;;4403858;32;318853;-82
2023/04/17 05:20:30;;;;;;;32.00;20.07;;;;;;;;;;4393301;32;334888;-82
2023/04/17 05:22:58;;;;;;;34.53;22.03;;;;;;;;;;4401967;32;318755;-82
2023/04/17 05:25:27;;;;;;;34.90;20.83;;;;;;;;;;4392646;32;318837;-82
2023/04/17 05:27:54;;;;;;;31.80;18.33;;;;;;;;;;4403375;32;318899;-78
2023/04/17 05:30:22;;;;;;;31.97;16.13;;;;;;;;;;4377079;32;318803;-79
2023/04/17 05:32:49;;;;;;;23.60;14.70;;;;;;;;;;4402539;32;318981;-79
2023/04/17 05:35:17;;;;;;;23.13;14.10;;;;;;;;;;4391187;32;319080;-80
2023/04/17 05:37:44;;;;;;;21.17;13.93;;;;;;;;;;4402672;32;318748;-79
2023/04/17 05:40:12;;;;;;;25.03;12.47;;;;;;;;;;4392537;32;319363;-80
2023/04/17 05:42:41;;;;;;;19.47;10.10;;;;;;;;;;4401747;32;318017;-79
2023/04/17 05:45:13;;;;;;;24.70;9.97;;;;;;;;;;4397708;32;318777;-80
2023/04/17 05:47:41;;;;;;;15.37;8.60;;;;;;;;;;4402988;32;317845;-80
2023/04/17 05:50:08;;;;;;;12.70;8.20;;;;;;;;;;4403143;32;317727;-81
2023/04/17 05:52:36;;;;;;;15.93;8.47;;;;;;;;;;4388912;32;417415;-80
2023/04/17 05:55:04;;;;;;;19.20;7.77;;;;;;;;;;4402500;32;317698;-81
2023/04/17 05:57:31;;;;;;;15.87;9.73;;;;;;;;;;4392425;32;317747;-79
2023/04/17 06:00:00;;;;;;;21.60;11.40;;;;;;;;;;4402990;32;334839;-80
2023/04/17 06:02:27;;;;;;;18.67;11.43;;;;;;;;;;4391970;32;318707;-81
2023/04/17 06:04:57;;;;;;;29.77;17.95;;;;;;;;;;4402298;32;318810;-81
2023/04/17 06:07:24;;;;;;;33.70;21.50;;;;;;;;;;4392732;32;319240;-80
2023/04/17 06:09:51;;;;;;;36.57;25.07;;;;;;;;;;4403183;32;318835;-80
2023/04/17 06:12:19;;;;;;;51.40;27.97;;;;;;;;;;4389029;32;332630;-80
2023/04/17 06:14:46;;;;;;;44.40;27.80;;;;;;;;;;4402806;32;318786;-80
2023/04/17 06:17:15;;;;;;;49.40;29.73;;;;;;;;;;4389940;32;318952;-80
2023/04/17 06:19:44;;;;;;;46.37;30.10;;;;;;;;;;4398277;32;317878;-80
2023/04/17 06:22:12;;;;;;;44.77;29.40;;;;;;;;;;4392737;32;318922;-80
2023/04/17 06:24:40;;;;;;;50.60;25.58;;;;;;;;;;4401792;32;319117;-81
2023/04/17 06:27:07;;;;;;;45.40;26.60;;;;;;;;;;4401561;32;319074;-81
2023/04/17 06:29:34;;;;;;;39.80;26.08;;;;;;;;;;4388078;32;418279;-80
2023/04/17 06:32:02;;;;;;;35.83;24.55;;;;;;;;;;4400858;32;318778;-80
2023/04/17 06:34:31;;;;;;;46.20;23.40;;;;;;;;;;4392285;32;318700;-79
2023/04/17 06:36:59;;;;;;;37.25;22.67;;;;;;;;;;4401104;32;318938;-79
2023/04/17 06:39:27;;;;;;;34.60;18.97;;;;;;;;;;4389826;32;318909;-80
2023/04/17 06:41:55;;;;;;;26.80;17.50;;;;;;;;;;4401716;32;318860;-79
2023/04/17 06:44:22;;;;;;;29.55;17.23;;;;;;;;;;4390957;32;318928;-79
2023/04/17 06:46:52;;;;;;;34.35;16.95;;;;;;;;;;4402680;32;318810;-80
2023/04/17 06:49:19;;;;;;;26.07;15.27;;;;;;;;;;4392008;32;318842;-79
2023/04/17 06:51:48;;;;;;;25.97;14.93;;;;;;;;;;4400701;32;318944;-78
2023/04/17 06:54:16;;;;;;;20.97;11.83;;;;;;;;;;4390332;32;318890;-79
2023/04/17 06:56:43;;;;;;;23.30;12.52;;;;;;;;;;4401512;32;319049;-79
2023/04/17 06:59:11;;;;;;;20.43;12.73;;;;;;;;;;4390521;32;319140;-79
2023/04/17 07:01:39;;;;;;;22.77;12.33;;;;;;;;;;4401999;32;318758;-79
2023/04/17 07:04:07;;;;;;;19.13;9.47;;;;;;;;;;4402577;32;319113;-78
2023/04/17 07:06:35;;;;;;;24.33;10.60;;;;;;;;;;4388510;32;417521;-80
2023/04/17 07:09:04;;;;;;;16.90;10.97;;;;;;;;;;4401732;32;318758;-79
2023/04/17 07:11:31;;;;;;;18.80;10.70;;;;;;;;;;4391237;32;318897;-79
2023/04/17 07:13:59;;;;;;;11.32;8.48;;;;;;;;;;4400475;32;318669;-79
2023/04/17 07:16:26;;;;;;;13.90;9.10;;;;;;;;;;4390034;32;317899;-80
2023/04/17 07:18:54;;;;;;;24.17;10.30;;;;;;;;;;4401706;32;317856;-79
2023/04/17 07:21:22;;;;;;;18.52;9.80;;;;;;;;;;4389378;32;318855;-80
2023/04/17 07:23:49;;;;;;;18.35;8.13;;;;;;;;;;4400251;32;317780;-79
2023/04/17 07:26:18;;;;;;;18.83;9.18;;;;;;;;;;4391350;32;317880;-80
2023/04/17 07:28:45;;;;;;;18.52;8.55;;;;;;;;;;4401009;32;317903;-79
2023/04/17 07:31:14;;;;;;;17.50;7.63;;;;;;;;;;4390934;32;317800;-80
2023/04/17 07:33:41;;;;;;;18.40;7.05;;;;;;;;;;4400883;32;317836;-78
2023/04/17 07:36:10;;;;;;;17.48;7.35;;;;;;;;;;4387585;32;318183;-78
2023/04/17 07:38:37;;;;;;;19.92;7.25;;;;;;;;;;4381780;32;417153;-77
2023/04/17 07:41:05;;;;;;;12.95;6.60;;;;;;;;;;4401269;32;317837;-78
2023/04/17 07:43:34;;;;;;;19.33;7.57;;;;;;;;;;4391242;32;317803;-79
2023/04/17 07:46:01;;;;;;;18.12;8.93;;;;;;;;;;4400818;32;318237;-79
2023/04/17 07:48:28;;;;;;;18.25;7.22;;;;;;;;;;4391248;32;317493;-78
2023/04/17 07:50:56;;;;;;;19.55;5.80;;;;;;;;;;4400545;32;317797;-83
2023/04/17 07:53:24;;;;;;;14.50;5.53;;;;;;;;;;4391507;32;318162;-83
2023/04/17 07:55:54;;;;;;;11.55;4.93;;;;;;;;;;4401017;32;318085;-84
2023/04/17 07:58:22;;;;;;;9.73;4.70;;;;;;;;;;4391496;32;318005;-82
2023/04/17 08:00:52;;;;;;;8.50;3.97;;;;;;;;;;4399138;32;316634;-83
2023/04/17 08:03:22;;;;;;;9.10;3.85;;;;;;;;;;4389720;32;316657;-82
2023/04/17 08:05:50;;;;;;;16.17;3.87;;;;;;;;;;4400513;32;316794;-82
2023/04/17 08:08:18;;;;;;;8.45;3.53;;;;;;;;;;4388114;32;318140;-83
2023/04/17 08:10:49;;;;;;;9.30;3.70;;;;;;;;;;4400006;32;316775;-83
2023/04/17 08:13:16;;;;;;;13.77;4.57;;;;;;;;;;4390325;32;316905;-82
2023/04/17 08:15:44;;;;;;;12.35;4.65;;;;;;;;;;4399333;32;318195;-84
2023/04/17 08:18:13;;;;;;;11.73;5.12;;;;;;;;;;4389393;32;363072;-82
2023/04/17 08:20:41;;;;;;;14.68;4.80;;;;;;;;;;4400343;32;318067;-86
2023/04/17 08:23:09;;;;;;;12.82;4.32;;;;;;;;;;4400062;32;358444;-85
2023/04/17 08:25:36;;;;;;;13.85;4.12;;;;;;;;;;4388411;32;388483;-86
2023/04/17 08:28:04;;;;;;;13.40;5.00;;;;;;;;;;4400440;32;351043;-81
2023/04/17 08:30:31;;;;;;;8.50;3.87;;;;;;;;;;4389963;32;318364;-81
2023/04/17 08:32:58;;;;;;;12.98;4.70;;;;;;;;;;4401000;32;316623;-77
2023/04/17 08:35:28;;;;;;;12.27;4.85;;;;;;;;;;4389051;32;318035;-79
2023/04/17 08:37:58;;;;;;;19.70;5.50;;;;;;;;;;4400387;32;317725;-81
2023/04/17 08:40:25;;;;;;;15.85;6.78;;;;;;;;;;4388884;32;317851;-77
2023/04/17 08:42:54;;;;;;;12.48;6.93;;;;;;;;;;4401039;32;348357;-81
2023/04/17 08:45:24;;;;;;;23.53;5.63;;;;;;;;;;4394218;32;316510;-80
2023/04/17 08:47:51;;;;;;;16.42;5.57;;;;;;;;;;4403528;32;317639;-83
2023/04/17 08:50:20;;;;;;;11.25;4.72;;;;;;;;;;4393724;32;333590;-82
2023/04/17 08:52:51;;;;;;;14.85;4.87;;;;;;;;;;4402974;32;322986;-78
2023/04/17 08:55:21;;;;;;;11.82;4.28;;;;;;;;;;4392119;32;317839;-77
2023/04/17 08:58:02;;;;;;;7.87;3.78;;;;;;;;;;4404342;32;317706;-82
2023/04/17 09:00:32;;;;;;;10.20;3.97;;;;;;;;;;4377281;32;317223;-81
2023/04/17 09:03:00;;;;;;;15.48;5.03;;;;;;;;;;4397286;32;317488;-79
2023/04/17 09:05:32;;;;;;;12.80;4.05;;;;;;;;;;4392083;32;341822;-81
2023/04/17 09:08:13;;;;;;;9.00;3.57;;;;;;;;;;4403477;32;317978;-80
2023/04/17 09:10:42;;;;;;;13.20;3.28;;;;;;;;;;4389629;32;415923;-80
2023/04/17 09:13:13;;;;;;;9.23;4.68;;;;;;;;;;4396423;32;317705;-80
2023/04/17 09:15:41;;;;;;;10.30;4.33;;;;;;;;;;4403041;32;316973;-83
2023/04/17 09:18:23;;;;;;;11.73;4.07;;;;;;;;;;4403148;32;318027;-80
2023/04/17 09:20:51;;;;;;;9.55;3.50;;;;;;;;;;4389574;32;417237;-80
2023/04/17 09:23:21;;;;;;;11.93;3.95;;;;;;;;;;4393941;32;316833;-80
2023/04/17 09:26:06;;;;;;;6.55;2.87;;;;;;;;;;4403275;32;317702;-80
2023/04/17 09:28:37;;;;;;;7.70;3.53;;;;;;;;;;4393212;32;317001;-79
2023/04/17 09:31:06;;;;;;;7.55;3.45;;;;;;;;;;4402075;32;316387;-79
2023/04/17 09:33:33;;;;;;;8.50;3.78;;;;;;;;;;4393387;32;317006;-80
2023/04/17 09:36:21;;;;;;;11.00;3.78;;;;;;;;;;4401867;32;326491;-79
2023/04/17 09:38:50;;;;;;;7.78;4.28;;;;;;;;;;4388552;32;421463;-80
2023/04/17 09:41:25;;;;;;;9.27;4.85;;;;;;;;;;4392841;32;316626;-80
2023/04/17 09:43:54;;;;;;;15.10;6.53;;;;;;;;;;4402241;32;316578;-79
2023/04/17 09:46:36;;;;;;;10.13;5.90;;;;;;;;;;4389114;32;317636;-80
2023/04/17 09:49:10;;;;;;;10.88;4.65;;;;;;;;;;4403458;32;317398;-80
2023/04/17 09:51:37;;;;;;;9.00;5.07;;;;;;;;;;4388336;32;416788;-80
2023/04/17 09:54:07;;;;;;;8.45;3.58;;;;;;;;;;4403033;32;316700;-80
2023/04/17 09:56:36;;;;;;;11.40;4.50;;;;;;;;;;4387653;32;417493;-80
2023/04/17 09:59:05;;;;;;;8.57;4.32;;;;;;;;;;4402684;32;317667;-84
2023/04/17 10:01:33;;;;;;;6.12;3.50;;;;;;;;;;4391602;32;316793;-82
2023/04/17 10:04:01;;;;;;;9.65;4.37;;;;;;;;;;4402342;32;316715;-81
2023/04/17 10:06:31;;;;;;;10.88;4.65;;;;;;;;;;4390576;32;354623;-80
2023/04/17 10:08:58;;;;;;;8.18;3.58;;;;;;;;;;4401868;32;317752;-79
2023/04/17 10:11:30;;;;;;;5.05;2.75;;;;;;;;;;4391901;32;316706;-79
2023/04/17 10:14:08;;;;;;;3.83;1.95;;;;;;;;;;4401870;32;316939;-81
2023/04/17 10:16:36;;;;;;;10.75;3.80;;;;;;;;;;4388829;32;415404;-79
2023/04/17 10:19:32;;;;;;;9.40;2.70;;;;;;;;;;4402546;32;317751;-81
2023/04/17 10:22:32;;;;;;;8.95;3.17;;;;;;;;;;4336991;32;417218;-79
2023/04/17 10:25:42;;;;;;;7.95;4.15;;;;;;;;;;4358640;32;389198;-79
2023/04/17 10:28:13;;;;;;;9.15;3.67;;;;;;;;;;4391662;32;418801;-81
2023/04/17 10:30:52;;;;;;;7.75;3.78;;;;;;;;;;4382985;32;416714;-78
2023/04/17 10:33:23;;;;;;;8.30;4.37;;;;;;;;;;4389407;32;316780;-84
2023/04/17 10:35:55;;;;;;;10.15;5.32;;;;;;;;;;4409970;32;315350;-78
2023/04/17 10:38:33;;;;;;;5.73;3.63;;;;;;;;;;4391752;32;317886;-83
2023/04/17 10:41:08;;;;;;;10.50;4.70;;;;;;;;;;4401594;32;316709;-82
2023/04/17 10:43:41;;;;;;;8.68;4.62;;;;;;;;;;4387599;32;420847;-83
2023/04/17 10:46:11;;;;;;;12.37;3.27;;;;;;;;;;4402648;32;317071;-83
2023/04/17 10:48:41;;;;;;;8.05;2.72;;;;;;;;;;4387726;32;417143;-82
2023/04/17 10:51:45;;;;;;;3.95;2.30;;;;;;;;;;4401142;32;316809;-82
2023/04/17 10:54:14;;;;;;;5.93;2.20;;;;;;;;;;4387369;32;416870;-82
2023/04/17 10:56:44;;;;;;;5.80;2.28;;;;;;;;;;4400664;32;317177;-83
2023/04/17 10:59:14;;;;;;;6.72;3.80;;;;;;;;;;4388484;32;325258;-83
2023/04/17 11:01:59;;;;;;;5.65;2.42;;;;;;;;;;4401046;32;316883;-83
2023/04/17 11:04:29;;;;;;;10.63;2.62;;;;;;;;;;4390857;32;316914;-83
2023/04/17 11:06:57;;;;;;;6.07;2.62;;;;;;;;;;4400914;32;318129;-83
2023/04/17 11:09:26;;;;;;;8.95;4.32;;;;;;;;;;4390931;32;316967;-84
2023/04/17 11:11:54;;;;;;;9.45;7.07;;;;;;;;;;4402321;32;317027;-79
2023/04/17 11:14:25;;;;;;;6.95;4.32;;;;;;;;;;4391309;32;316429;-81
2023/04/17 11:16:52;;;;;;;9.20;4.40;;;;;;;;;;4401139;32;316562;-80
2023/04/17 11:19:21;;;;;;;4.68;3.00;;;;;;;;;;4392219;32;316753;-79
2023/04/17 11:21:50;;;;;;;6.45;3.08;;;;;;;;;;4401624;32;316771;-79
2023/04/17 11:24:23;;;;;;;4.65;3.12;;;;;;;;;;4389621;32;316682;-79
2023/04/17 11:26:50;;;;;;;6.90;3.90;;;;;;;;;;4399425;32;317436;-79
2023/04/17 11:29:19;;;;;;;14.52;6.72;;;;;;;;;;4391472;32;317116;-79
2023/04/17 11:31:50;;;;;;;8.52;4.90;;;;;;;;;;4399636;32;317914;-80
2023/04/17 11:34:18;;;;;;;11.20;3.45;;;;;;;;;;4391406;32;316876;-79
2023/04/17 11:36:50;;;;;;;10.77;3.90;;;;;;;;;;4401354;32;317808;-79
2023/04/17 11:39:17;;;;;;;8.40;3.10;;;;;;;;;;4390958;32;317993;-80
2023/04/17 11:41:46;;;;;;;7.20;3.62;;;;;;;;;;4401160;32;317104;-79
2023/04/17 11:44:13;;;;;;;7.72;4.43;;;;;;;;;;4389427;32;349091;-80
2023/04/17 11:46:40;;;;;;;5.25;2.75;;;;;;;;;;4399160;32;317242;-80
2023/04/17 11:49:10;;;;;;;3.25;1.90;;;;;;;;;;4401886;32;317047;-80
2023/04/17 11:51:37;;;;;;;4.25;1.80;;;;;;;;;;4387700;32;416140;-80
2023/04/17 11:54:05;;;;;;;5.43;2.50;;;;;;;;;;4401554;32;316569;-80
2023/04/17 11:56:32;;;;;;;4.57;2.30;;;;;;;;;;4389840;32;317200;-80
2023/04/17 11:59:02;;;;;;;5.00;2.55;;;;;;;;;;4401092;32;316844;-80
2023/04/17 12:01:30;;;;;;;2.97;1.50;;;;;;;;;;4390945;32;317011;-79
2023/04/17 12:03:58;;;;;;;13.82;2.75;;;;;;;;;;4400347;32;316985;-82
2023/04/17 12:06:36;;;;;;;4.47;1.80;;;;;;;;;;4390297;32;317960;-81
2023/04/17 12:09:05;;;;;;;6.28;2.22;;;;;;;;;;4400501;32;315713;-80
2023/04/17 12:11:33;;;;;;;4.78;2.20;;;;;;;;;;4390750;32;317138;-95
2023/04/17 12:14:02;;;;;;;6.40;2.70;;;;;;;;;;4401386;32;316994;-82
2023/04/17 12:16:30;;;;;;;3.90;1.83;;;;;;;;;;4390689;32;316787;-82
2023/04/17 12:18:58;;;;;;;5.53;2.85;;;;;;;;;;4398979;32;316671;-82
2023/04/17 12:21:25;;;;;;;7.93;3.80;;;;;;;;;;4390765;32;317519;-82
2023/04/17 12:23:54;;;;;;;9.38;3.87;;;;;;;;;;4400788;32;317143;-81
2023/04/17 12:26:23;;;;;;;5.22;2.80;;;;;;;;;;4387876;32;317111;-82
2023/04/17 12:28:51;;;;;;;4.68;1.70;;;;;;;;;;4400873;32;316908;-81
2023/04/17 12:31:18;;;;;;;5.17;2.00;;;;;;;;;;4389600;32;316771;-81
2023/04/17 12:33:46;;;;;;;5.30;1.80;;;;;;;;;;4401349;32;316803;-81
2023/04/17 12:36:13;;;;;;;4.32;1.90;;;;;;;;;;4387471;32;316990;-81
2023/04/17 12:38:41;;;;;;;6.35;1.85;;;;;;;;;;4401298;32;316614;-81
2023/04/17 12:41:10;;;;;;;1.75;1.12;;;;;;;;;;4401258;32;316862;-81
2023/04/17 12:43:38;;;;;;;5.25;1.23;;;;;;;;;;4388148;32;416034;-81
2023/04/17 12:46:06;;;;;;;1.55;1.23;;;;;;;;;;4399970;32;315718;-80
2023/04/17 12:48:33;;;;;;;2.40;1.05;;;;;;;;;;4390326;32;316810;-82
2023/04/17 12:51:01;;;;;;;3.75;2.22;;;;;;;;;;4400756;32;316772;-80
2023/04/17 12:53:28;;;;;;;4.97;1.90;;;;;;;;;;4389596;32;316684;-81
2023/04/17 12:55:56;;;;;;;8.88;4.50;;;;;;;;;;4401019;32;317240;-80
2023/04/17 12:58:25;;;;;;;4.18;2.10;;;;;;;;;;4390923;32;316773;-81
2023/04/17 13:00:53;;;;;;;6.37;3.60;;;;;;;;;;4400567;32;316912;-81
2023/04/17 13:03:20;;;;;;;6.67;4.47;;;;;;;;;;4387133;32;355937;-81
2023/04/17 13:05:51;;;;;;;10.05;5.22;;;;;;;;;;4400805;32;315591;-82
2023/04/17 13:08:19;;;;;;;4.85;2.28;;;;;;;;;;4390115;32;317840;-82
2023/04/17 13:10:46;;;;;;;3.47;1.70;;;;;;;;;;4400482;32;317030;-81
2023/04/17 13:13:13;;;;;;;4.10;2.35;;;;;;;;;;4388846;32;317108;-82
2023/04/17 13:15:44;;;;;;;6.55;3.85;;;;;;;;;;4400085;32;316781;-80
2023/04/17 13:18:12;;;;;;;2.70;1.42;;;;;;;;;;4389554;32;316726;-82
2023/04/17 13:20:39;;;;;;;5.85;1.42;;;;;;;;;;4399027;32;334437;-80
2023/04/17 13:23:06;;;;;;;6.22;2.05;;;;;;;;;;4399596;32;317007;-80
2023/04/17 13:25:34;;;;;;;4.12;2.50;;;;;;;;;;4390738;32;317090;-80
2023/04/17 13:28:02;;;;;;;4.95;3.12;;;;;;;;;;4399584;32;317217;-80
2023/04/17 13:30:31;;;;;;;7.35;4.22;;;;;;;;;;4392312;32;316895;-80
2023/04/17 13:32:59;;;;;;;7.45;4.15;;;;;;;;;;4403157;32;316941;-80
2023/04/17 13:35:27;;;;;;;8.80;5.00;;;;;;;;;;4393396;32;316701;-80
2023/04/17 13:37:56;;;;;;;8.45;4.25;;;;;;;;;;4402827;32;320996;-80
2023/04/17 13:40:23;;;;;;;5.60;3.00;;;;;;;;;;4391511;32;316906;-80
2023/04/17 13:42:51;;;;;;;7.15;4.28;;;;;;;;;;4403719;32;316731;-81
2023/04/17 13:45:19;;;;;;;5.57;3.45;;;;;;;;;;4390748;32;317052;-81
2023/04/17 13:47:46;;;;;;;6.65;3.50;;;;;;;;;;4402080;32;316950;-81
2023/04/17 13:50:15;;;;;;;7.62;4.00;;;;;;;;;;4391630;32;316809;-81
2023/04/17 13:52:42;;;;;;;4.15;2.78;;;;;;;;;;4401835;32;316858;-81
2023/04/17 13:55:13;;;;;;;5.82;3.08;;;;;;;;;;4392977;32;316910;-81
2023/04/17 13:57:40;;;;;;;10.52;5.90;;;;;;;;;;4401458;32;317018;-81
2023/04/17 14:00:10;;;;;;;6.75;3.50;;;;;;;;;;4403249;32;317827;-82
2023/04/17 14:02:38;;;;;;;5.53;3.22;;;;;;;;;;4390331;32;415733;-82
2023/04/17 14:05:06;;;;;;;6.28;2.75;;;;;;;;;;4403381;32;317117;-83
2023/04/17 14:07:35;;;;;;;4.90;2.22;;;;;;;;;;4392671;32;316966;-83
2023/04/17 14:10:02;;;;;;;5.25;2.17;;;;;;;;;;4402822;32;316682;-79
2023/04/17 14:12:30;;;;;;;3.95;2.30;;;;;;;;;;4391917;32;316818;-82
2023/04/17 14:14:57;;;;;;;6.55;3.45;;;;;;;;;;4400358;32;316872;-81
2023/04/17 14:17:25;;;;;;;8.00;4.45;;;;;;;;;;4392188;32;317170;-82
2023/04/17 14:19:52;;;;;;;7.72;4.00;;;;;;;;;;4402159;32;316749;-81
2023/04/17 14:22:20;;;;;;;6.20;2.45;;;;;;;;;;4392791;32;316818;-81
2023/04/17 14:24:49;;;;;;;6.93;2.42;;;;;;;;;;4401963;32;316970;-81
2023/04/17 14:27:17;;;;;;;5.22;2.97;;;;;;;;;;4393080;32;317400;-80
2023/04/17 14:29:44;;;;;;;5.43;2.45;;;;;;;;;;4402633;32;316865;-81